Time;durP1;ratioP1;P1;durP2;ratioP2;P2;SDS_P1;SDS_P2;PMS_P1;PMS_P2;Temp;Humidity;BMP_temperature;BMP_pressure;BME280_temperature;BME280_humidity;BME280_pressure;Samples;Min_cycle;Max_cycle;Signal;HPM_P1;HPM_P2
2023/03/28 00:01:27;;;;;;;10.93;9.70;;;2.20;80.20;;;;;;4996053;28;20690;-92
2023/03/28 00:03:53;;;;;;;12.37;9.53;;;2.20;79.70;;;;;;4997206;28;20174;-93
2023/03/28 00:06:20;;;;;;;10.13;9.03;;;2.10;79.40;;;;;;4996587;28;20181;-93
2023/03/28 00:08:46;;;;;;;10.93;9.53;;;2.10;79.30;;;;;;4996043;28;20245;-93
2023/03/28 00:11:18;;;;;;;10.23;9.20;;;2.10;79.10;;;;;;4996583;28;20177;-93
2023/03/28 00:13:50;;;;;;;13.13;10.43;;;2.10;79.00;;;;;;4995986;28;20174;-93
2023/03/28 00:16:15;;;;;;;10.80;9.77;;;2.10;78.80;;;;;;4996486;28;20652;-92
2023/03/28 00:18:41;;;;;;;11.77;10.23;;;2.10;78.60;;;;;;4996580;28;20197;-93
2023/03/28 00:21:22;;;;;;;11.63;10.50;;;2.00;78.40;;;;;;4995868;28;20185;-92
2023/03/28 00:23:53;;;;;;;11.70;10.60;;;2.00;78.40;;;;;;4995755;28;20203;-92
2023/03/28 00:26:20;;;;;;;11.27;10.10;;;2.00;78.30;;;;;;4996084;28;20728;-92
2023/03/28 00:28:46;;;;;;;13.37;10.13;;;1.90;78.40;;;;;;4994701;28;20210;-92
2023/03/28 00:31:12;;;;;;;10.70;9.90;;;1.90;78.70;;;;;;4994788;28;20177;-92
2023/03/28 00:33:40;;;;;;;11.17;9.67;;;1.90;78.60;;;;;;4995657;28;20301;-92
2023/03/28 00:36:09;;;;;;;12.63;10.53;;;1.90;78.70;;;;;;4997799;28;20201;-92
2023/03/28 00:38:35;;;;;;;12.00;11.00;;;1.80;78.60;;;;;;4994654;28;20198;-92
2023/03/28 00:41:00;;;;;;;14.13;10.53;;;1.80;78.70;;;;;;4994783;28;20228;-92
2023/03/28 00:43:47;;;;;;;11.10;10.20;;;1.80;78.70;;;;;;4993847;28;20177;-92
2023/03/28 00:46:19;;;;;;;12.03;10.30;;;1.80;79.20;;;;;;4997884;28;20653;-93
2023/03/28 00:48:55;;;;;;;10.43;9.63;;;1.80;79.10;;;;;;5002976;28;20241;-93
2023/03/28 00:51:29;;;;;;;10.73;9.83;;;1.70;79.20;;;;;;5013492;28;20178;-93
2023/03/28 00:53:56;;;;;;;10.60;9.70;;;1.70;79.40;;;;;;5007376;28;20177;-93
2023/03/28 00:56:25;;;;;;;13.27;9.67;;;1.80;79.30;;;;;;5008174;28;20178;-93
2023/03/28 00:58:51;;;;;;;9.87;8.93;;;1.70;79.30;;;;;;5001193;28;20256;-93
2023/03/28 01:01:18;;;;;;;10.43;9.60;;;1.70;79.30;;;;;;4996439;28;20182;-92
2023/03/28 01:03:51;;;;;;;10.53;9.60;;;1.60;79.30;;;;;;4994779;28;20236;-92
2023/03/28 01:06:20;;;;;;;11.00;10.00;;;1.50;79.30;;;;;;4995015;28;20181;-92
2023/03/28 01:08:48;;;;;;;11.07;10.03;;;1.60;79.70;;;;;;4994902;28;20220;-93
2023/03/28 01:11:14;;;;;;;11.37;10.50;;;1.50;79.60;;;;;;4995004;28;20178;-92
2023/03/28 01:13:46;;;;;;;10.47;9.77;;;1.50;79.80;;;;;;4994786;28;20268;-92
2023/03/28 01:16:14;;;;;;;11.27;10.23;;;1.50;79.70;;;;;;4994507;28;20189;-92
2023/03/28 01:18:40;;;;;;;11.30;10.40;;;1.40;79.90;;;;;;4994329;28;20215;-92
2023/03/28 01:21:39;;;;;;;9.90;9.17;;;1.40;80.20;;;;;;4994282;28;20274;-92
2023/03/28 01:24:20;;;;;;;15.50;9.73;;;1.30;80.20;;;;;;4945764;28;20678;-92
2023/03/28 01:26:57;;;;;;;9.57;8.70;;;1.30;80.40;;;;;;4994034;28;20185;-92
2023/03/28 01:29:59;;;;;;;10.30;9.50;;;1.20;80.40;;;;;;4994351;28;20212;-92
2023/03/28 01:32:47;;;;;;;10.67;9.77;;;1.30;80.60;;;;;;4994892;28;20178;-92
2023/03/28 01:35:19;;;;;;;10.20;9.43;;;1.20;80.30;;;;;;4994020;28;20212;-92
2023/03/28 01:38:03;;;;;;;10.47;9.57;;;1.10;80.50;;;;;;4994026;28;20204;-91
2023/03/28 01:40:56;;;;;;;9.73;8.83;;;1.10;80.80;;;;;;4994049;28;20264;-92
2023/03/28 01:43:40;;;;;;;9.77;8.97;;;1.00;80.90;;;;;;4993934;28;20178;-92
2023/03/28 01:46:27;;;;;;;9.50;8.63;;;1.10;80.90;;;;;;4993851;28;20201;-92
2023/03/28 01:49:03;;;;;;;10.23;9.43;;;1.00;81.10;;;;;;4993484;28;20296;-92
2023/03/28 01:51:57;;;;;;;9.67;8.87;;;1.00;80.90;;;;;;4993945;28;20184;-92
2023/03/28 01:54:52;;;;;;;10.00;9.00;;;0.90;81.00;;;;;;4993551;28;20210;-92
2023/03/28 01:57:34;;;;;;;9.73;9.00;;;0.80;81.20;;;;;;4996532;28;20190;-92
2023/03/28 02:00:11;;;;;;;9.87;9.27;;;0.80;81.50;;;;;;4997373;28;20268;-92
2023/03/28 02:02:47;;;;;;;9.27;8.37;;;0.80;81.70;;;;;;4996909;28;20184;-92
2023/03/28 02:05:18;;;;;;;9.00;8.00;;;0.80;81.80;;;;;;4997276;28;20646;-92
2023/03/28 02:07:45;;;;;;;9.43;8.47;;;0.80;81.90;;;;;;4996770;28;20214;-92
2023/03/28 02:10:14;;;;;;;10.83;9.27;;;0.80;81.80;;;;;;4997218;28;20170;-92
2023/03/28 02:12:47;;;;;;;9.47;8.77;;;0.80;81.80;;;;;;4996811;28;20174;-92
2023/03/28 02:15:15;;;;;;;9.93;9.20;;;0.90;81.80;;;;;;4997831;28;20636;-92
2023/03/28 02:17:48;;;;;;;9.77;8.90;;;0.80;81.70;;;;;;4996590;28;20201;-92
2023/03/28 02:20:18;;;;;;;10.30;9.30;;;0.80;81.70;;;;;;4996634;28;20182;-92
2023/03/28 02:22:59;;;;;;;9.13;8.33;;;0.80;81.80;;;;;;4997609;28;20650;-92
2023/03/28 02:25:25;;;;;;;9.17;8.40;;;0.80;81.80;;;;;;4996432;28;20182;-92
2023/03/28 02:27:55;;;;;;;9.63;8.90;;;0.80;81.80;;;;;;4995996;28;20224;-92
2023/03/28 02:30:22;;;;;;;9.40;8.70;;;0.80;81.80;;;;;;4996187;28;20554;-92
2023/03/28 02:32:49;;;;;;;8.47;7.80;;;0.80;81.90;;;;;;4996216;28;20174;-92
2023/03/28 02:35:18;;;;;;;7.87;7.17;;;0.70;82.40;;;;;;4995875;28;20174;-92
2023/03/28 02:37:57;;;;;;;8.10;7.57;;;0.70;83.20;;;;;;4995791;28;20221;-92
2023/03/28 02:40:41;;;;;;;8.10;7.50;;;0.60;83.70;;;;;;4996651;28;20180;-92
2023/03/28 02:43:22;;;;;;;7.33;6.83;;;0.60;84.00;;;;;;4995749;28;20170;-92
2023/03/28 02:46:17;;;;;;;9.13;7.23;;;0.60;84.40;;;;;;4995762;28;20535;-92
2023/03/28 02:49:01;;;;;;;14.50;7.00;;;0.50;84.90;;;;;;4986744;28;20311;-91
2023/03/28 02:51:39;;;;;;;7.07;6.53;;;0.50;85.10;;;;;;4996121;28;20181;-92
2023/03/28 02:54:22;;;;;;;7.10;6.50;;;0.60;85.20;;;;;;4995779;28;20256;-92
2023/03/28 02:57:01;;;;;;;7.10;6.43;;;0.70;85.10;;;;;;4995723;28;20182;-92
2023/03/28 02:59:34;;;;;;;8.00;7.20;;;0.70;85.10;;;;;;4995635;28;20200;-92
2023/03/28 03:02:02;;;;;;;6.50;5.90;;;0.70;85.20;;;;;;4995447;28;20184;-92
2023/03/28 03:04:27;;;;;;;11.00;6.43;;;0.70;85.10;;;;;;4995319;28;20189;-92
2023/03/28 03:06:53;;;;;;;8.27;6.03;;;0.60;85.30;;;;;;4995070;28;20178;-92
2023/03/28 03:09:18;;;;;;;8.50;6.30;;;0.60;85.70;;;;;;4995370;28;20194;-91
2023/03/28 03:11:44;;;;;;;9.30;6.00;;;0.60;86.00;;;;;;4995210;28;20216;-92
2023/03/28 03:14:10;;;;;;;8.53;6.27;;;0.60;86.00;;;;;;4995240;28;20178;-92
2023/03/28 03:16:37;;;;;;;8.97;6.40;;;0.70;86.00;;;;;;4995392;28;20648;-92
2023/03/28 03:19:03;;;;;;;7.50;6.53;;;0.70;86.00;;;;;;4995099;28;20202;-92
2023/03/28 03:21:28;;;;;;;7.23;6.43;;;0.70;85.80;;;;;;4994995;28;20551;-92
2023/03/28 03:23:54;;;;;;;9.17;6.83;;;0.70;85.60;;;;;;4995059;28;20185;-92
2023/03/28 03:26:21;;;;;;;7.40;6.80;;;0.70;85.50;;;;;;4994993;28;20186;-92
2023/03/28 03:28:48;;;;;;;8.17;7.37;;;0.60;85.40;;;;;;4995112;28;20217;-92
2023/03/28 03:31:13;;;;;;;8.77;8.17;;;0.60;85.40;;;;;;4995078;28;20180;-92
2023/03/28 03:33:41;;;;;;;7.67;6.90;;;0.40;85.10;;;;;;4995039;28;20280;-92
2023/03/28 03:36:08;;;;;;;9.40;7.60;;;0.40;85.70;;;;;;4995459;28;20177;-92
2023/03/28 03:38:34;;;;;;;7.33;6.80;;;0.30;86.10;;;;;;4995268;28;20197;-92
2023/03/28 03:41:00;;;;;;;8.67;6.67;;;0.40;86.40;;;;;;4995047;28;20192;-92
2023/03/28 03:43:26;;;;;;;10.03;6.77;;;0.30;86.50;;;;;;4994664;28;20178;-92
2023/03/28 03:45:52;;;;;;;6.50;6.00;;;0.40;86.60;;;;;;4994995;28;20553;-92
2023/03/28 03:48:17;;;;;;;7.80;7.00;;;0.30;86.70;;;;;;4994634;28;20218;-92
2023/03/28 03:50:43;;;;;;;6.00;5.60;;;0.30;86.80;;;;;;4995088;28;20174;-92
2023/03/28 03:53:09;;;;;;;6.97;6.20;;;0.30;86.80;;;;;;4995434;28;20203;-92
2023/03/28 03:55:38;;;;;;;7.50;6.50;;;0.30;87.10;;;;;;4995517;28;20550;-92
2023/03/28 03:58:04;;;;;;;6.87;6.23;;;0.40;87.10;;;;;;4995777;28;20198;-92
2023/03/28 04:00:29;;;;;;;9.37;8.37;;;0.40;87.10;;;;;;4995471;28;20539;-92
2023/03/28 04:02:55;;;;;;;8.10;7.50;;;0.30;86.90;;;;;;4994734;28;20185;-92
2023/03/28 04:05:20;;;;;;;8.07;7.27;;;0.30;87.00;;;;;;4994413;28;20210;-92
2023/03/28 04:07:46;;;;;;;7.20;6.60;;;0.20;87.40;;;;;;4994485;28;20220;-92
2023/03/28 04:10:12;;;;;;;9.83;7.43;;;0.10;87.60;;;;;;4994750;28;20639;-92
2023/03/28 04:12:37;;;;;;;6.50;5.90;;;0.10;87.80;;;;;;4994702;28;20265;-92
2023/03/28 04:15:05;;;;;;;11.03;6.33;;;0.10;88.00;;;;;;4994924;28;20210;-92
2023/03/28 04:17:33;;;;;;;8.57;5.90;;;0.10;88.10;;;;;;4994094;28;20237;-92
2023/03/28 04:20:00;;;;;;;9.50;6.30;;;0.00;88.10;;;;;;4994623;28;20178;-91
2023/03/28 04:22:28;;;;;;;9.33;7.73;;;0.00;88.40;;;;;;4997150;28;20193;-92
2023/03/28 04:24:55;;;;;;;7.03;6.43;;;0.10;88.50;;;;;;4994723;28;20663;-92
2023/03/28 04:27:25;;;;;;;7.87;5.90;;;0.30;88.60;;;;;;4994873;28;20205;-92
2023/03/28 04:29:52;;;;;;;7.23;6.63;;;0.30;88.60;;;;;;4995403;28;20656;-92
2023/03/28 04:32:20;;;;;;;11.13;5.60;;;0.30;88.60;;;;;;4995056;28;20320;-92
2023/03/28 04:34:48;;;;;;;11.90;4.87;;;0.40;88.70;;;;;;4994632;28;20186;-92
2023/03/28 04:37:14;;;;;;;13.57;5.10;;;0.40;88.70;;;;;;4995183;28;20598;-92
2023/03/28 04:39:40;;;;;;;12.53;5.33;;;0.30;88.70;;;;;;4995559;28;20241;-92
2023/03/28 04:42:07;;;;;;;9.23;5.73;;;0.30;88.80;;;;;;4995353;28;20199;-91
2023/03/28 04:44:32;;;;;;;12.43;5.30;;;0.30;89.00;;;;;;4995818;28;20263;-92
2023/03/28 04:46:59;;;;;;;7.90;5.10;;;0.30;89.20;;;;;;4994317;28;20221;-92
2023/03/28 04:49:25;;;;;;;8.43;5.63;;;0.20;89.30;;;;;;4994747;28;20204;-92
2023/03/28 04:51:51;;;;;;;10.50;6.13;;;0.30;89.60;;;;;;4995060;28;20199;-92
2023/03/28 04:54:17;;;;;;;16.17;6.17;;;0.20;89.80;;;;;;4995127;28;20644;-92
2023/03/28 04:56:44;;;;;;;16.17;5.33;;;0.20;89.90;;;;;;4995632;28;20179;-91
2023/03/28 04:59:11;;;;;;;10.80;5.63;;;0.10;90.00;;;;;;4994937;28;20206;-92
2023/03/28 05:01:36;;;;;;;13.00;5.93;;;0.10;90.20;;;;;;4995132;28;20181;-92
2023/03/28 05:04:02;;;;;;;11.53;6.13;;;0.00;90.30;;;;;;4995186;28;20185;-91
2023/03/28 05:06:28;;;;;;;15.80;6.20;;;0.00;90.50;;;;;;4994752;28;20209;-92
2023/03/28 05:08:53;;;;;;;17.83;7.17;;;0.00;90.60;;;;;;4994680;28;20219;-92
2023/03/28 05:11:19;;;;;;;21.07;6.27;;;0.00;90.60;;;;;;4994786;28;20283;-92
2023/03/28 05:13:44;;;;;;;15.13;6.17;;;0.00;90.70;;;;;;4994328;28;20180;-92
2023/03/28 05:16:10;;;;;;;8.57;5.43;;;0.00;90.80;;;;;;4994422;28;20189;-92
2023/03/28 05:18:35;;;;;;;13.57;6.23;;;0.00;90.90;;;;;;4994334;28;20683;-91
2023/03/28 05:21:01;;;;;;;15.07;6.13;;;0.10;91.00;;;;;;4994349;28;20566;-92
2023/03/28 05:23:26;;;;;;;15.40;6.10;;;0.10;91.00;;;;;;4994339;28;20199;-92
2023/03/28 05:25:53;;;;;;;11.00;6.00;;;0.10;91.10;;;;;;4993785;28;20184;-92
2023/03/28 05:28:19;;;;;;;12.87;5.70;;;0.20;91.20;;;;;;4993707;28;20644;-92
2023/03/28 05:30:45;;;;;;;18.30;5.87;;;0.30;91.40;;;;;;4998878;28;20230;-92
2023/03/28 05:33:11;;;;;;;14.23;5.60;;;0.40;91.60;;;;;;4999841;28;20180;-92
2023/03/28 05:35:36;;;;;;;23.50;5.87;;;0.50;91.60;;;;;;5000345;28;20179;-92
2023/03/28 05:38:03;;;;;;;12.23;5.47;;;0.50;91.60;;;;;;5000304;28;20678;-92
2023/03/28 05:40:29;;;;;;;14.73;5.83;;;0.60;91.60;;;;;;4999927;28;20275;-92
2023/03/28 05:42:54;;;;;;;17.03;5.77;;;0.70;91.60;;;;;;5000511;28;20202;-92
2023/03/28 05:45:21;;;;;;;13.27;6.07;;;0.80;91.70;;;;;;5000267;28;20189;-92
2023/03/28 05:47:49;;;;;;;16.63;6.20;;;0.80;91.60;;;;;;5000067;28;20312;-92
2023/03/28 05:50:15;;;;;;;17.70;6.00;;;0.80;91.60;;;;;;4999857;28;20177;-92
2023/03/28 05:52:40;;;;;;;12.17;5.90;;;0.90;91.60;;;;;;4999591;28;20197;-92
2023/03/28 05:55:07;;;;;;;18.60;7.23;;;1.00;91.70;;;;;;4999378;28;20673;-92
2023/03/28 05:57:33;;;;;;;14.87;6.43;;;1.00;91.70;;;;;;4999460;28;20204;-91
2023/03/28 05:59:59;;;;;;;18.37;5.97;;;1.20;91.70;;;;;;5001047;28;20185;-91
2023/03/28 06:02:25;;;;;;;16.07;6.23;;;1.30;91.70;;;;;;5000868;28;20216;-92
2023/03/28 06:04:53;;;;;;;16.80;6.83;;;1.50;91.80;;;;;;5000584;28;20728;-91
2023/03/28 06:07:20;;;;;;;16.00;7.07;;;1.50;91.60;;;;;;4999799;28;20741;-91
2023/03/28 06:09:46;;;;;;;13.00;6.37;;;1.70;91.70;;;;;;4999675;28;20558;-91
2023/03/28 06:12:12;;;;;;;11.60;5.83;;;1.70;91.60;;;;;;4999947;28;20528;-92
2023/03/28 06:14:38;;;;;;;9.90;6.13;;;1.90;90.60;;;;;;4999939;28;20170;-91
2023/03/28 06:17:03;;;;;;;19.77;6.80;;;2.10;89.90;;;;;;4999806;28;20212;-92
2023/03/28 06:19:29;;;;;;;10.17;5.80;;;2.10;89.30;;;;;;5001274;28;20194;-93
2023/03/28 06:21:55;;;;;;;18.13;6.53;;;2.10;89.00;;;;;;5001610;28;20200;-93
2023/03/28 06:24:20;;;;;;;20.40;7.33;;;2.00;89.00;;;;;;4999668;28;20174;-92
2023/03/28 06:26:46;;;;;;;16.40;8.07;;;2.10;89.10;;;;;;4999358;28;20182;-92
2023/03/28 06:29:11;;;;;;;13.23;6.43;;;2.00;89.20;;;;;;5000095;28;20223;-92
2023/03/28 06:31:37;;;;;;;14.30;6.20;;;2.00;89.80;;;;;;4999972;28;20181;-92
2023/03/28 06:34:03;;;;;;;17.00;6.60;;;2.20;90.50;;;;;;5002589;28;20169;-92
2023/03/28 06:36:29;;;;;;;9.33;6.63;;;2.30;90.50;;;;;;4999612;28;20181;-92
2023/03/28 06:38:57;;;;;;;15.07;7.13;;;2.30;90.30;;;;;;4998629;28;20207;-91
2023/03/28 06:41:22;;;;;;;15.33;6.23;;;2.20;90.20;;;;;;4996824;28;20257;-91
2023/03/28 06:43:48;;;;;;;13.73;7.10;;;2.30;90.30;;;;;;4996865;28;20197;-93
2023/03/28 06:46:15;;;;;;;16.27;6.83;;;2.20;90.20;;;;;;4997900;28;20170;-92
2023/03/28 06:48:40;;;;;;;14.23;6.50;;;2.40;90.40;;;;;;4996768;28;20217;-92
2023/03/28 06:51:06;;;;;;;10.97;6.60;;;2.40;90.30;;;;;;4998022;28;20663;-93
2023/03/28 06:53:32;;;;;;;14.57;6.87;;;2.50;90.20;;;;;;4997735;28;20178;-93
2023/03/28 06:55:58;;;;;;;17.03;7.57;;;2.50;90.20;;;;;;4998229;28;20174;-93
2023/03/28 06:58:24;;;;;;;9.77;5.90;;;2.70;90.30;;;;;;4997407;28;20209;-93
2023/03/28 07:00:53;;;;;;;25.07;7.40;;;2.80;90.10;;;;;;4997200;28;20181;-92
2023/03/28 07:03:19;;;;;;;15.40;6.97;;;2.80;90.00;;;;;;4997803;28;20189;-93
2023/03/28 07:05:45;;;;;;;16.13;7.50;;;2.80;89.80;;;;;;5001215;28;20241;-92
2023/03/28 07:08:12;;;;;;;17.50;8.80;;;2.90;89.70;;;;;;5011329;28;20217;-93
2023/03/28 07:10:39;;;;;;;19.40;7.17;;;2.90;89.50;;;;;;5011241;28;20185;-93
2023/03/28 07:13:05;;;;;;;20.00;10.97;;;2.90;89.30;;;;;;5007149;28;20608;-91
2023/03/28 07:15:34;;;;;;;21.20;11.17;;;3.00;89.10;;;;;;5000764;28;20196;-91
2023/03/28 07:18:00;;;;;;;13.10;10.47;;;3.10;89.10;;;;;;4998581;28;20204;-93
2023/03/28 07:20:26;;;;;;;16.83;10.80;;;3.20;88.90;;;;;;5004819;28;20559;-93
2023/03/28 07:22:52;;;;;;;22.13;11.20;;;3.30;88.90;;;;;;5001422;28;20177;-93
2023/03/28 07:25:18;;;;;;;16.97;11.17;;;3.20;88.80;;;;;;4999660;28;20184;-90
2023/03/28 07:27:43;;;;;;;18.60;11.70;;;3.30;88.80;;;;;;4994558;28;20240;-90
2023/03/28 07:30:10;;;;;;;16.40;11.97;;;3.40;88.60;;;;;;4996200;28;20181;-92
2023/03/28 07:32:36;;;;;;;16.53;11.63;;;3.30;87.90;;;;;;4997249;28;20186;-91
2023/03/28 07:35:05;;;;;;;13.73;11.20;;;3.50;88.00;;;;;;4997544;28;20281;-91
2023/03/28 07:37:32;;;;;;;16.57;11.90;;;3.50;87.90;;;;;;4994413;28;20699;-90
2023/03/28 07:40:05;;;;;;;16.93;11.90;;;3.60;87.90;;;;;;5005172;28;20173;-93
2023/03/28 07:42:30;;;;;;;21.33;11.97;;;3.60;87.80;;;;;;5000797;28;20543;-91
2023/03/28 07:44:56;;;;;;;14.33;12.07;;;3.60;87.70;;;;;;4995254;28;20189;-92
2023/03/28 07:47:21;;;;;;;14.67;12.20;;;3.80;87.90;;;;;;4994812;28;20317;-92
2023/03/28 07:49:47;;;;;;;16.90;11.00;;;4.10;87.90;;;;;;4994958;28;20183;-92
2023/03/28 07:52:13;;;;;;;15.63;11.80;;;4.20;87.50;;;;;;4994509;28;20538;-92
2023/03/28 07:54:39;;;;;;;15.03;10.03;;;4.40;87.50;;;;;;4994717;28;20198;-92
2023/03/28 07:57:05;;;;;;;13.50;12.17;;;4.30;86.10;;;;;;4994465;28;20553;-92
2023/03/28 07:59:31;;;;;;;13.60;12.47;;;4.30;85.00;;;;;;4994163;28;20194;-92
2023/03/28 08:01:57;;;;;;;15.83;13.60;;;4.10;84.20;;;;;;4995241;28;20212;-92
2023/03/28 08:04:23;;;;;;;14.67;12.87;;;4.20;84.50;;;;;;4994495;28;20553;-92
2023/03/28 08:06:51;;;;;;;17.87;14.73;;;4.10;84.40;;;;;;4995529;28;20175;-92
2023/03/28 08:09:17;;;;;;;15.60;12.80;;;3.80;83.20;;;;;;4995141;28;20202;-93
2023/03/28 08:11:43;;;;;;;14.33;12.17;;;3.70;83.60;;;;;;4994092;28;20225;-93
2023/03/28 08:14:11;;;;;;;21.40;12.17;;;3.60;84.20;;;;;;4994152;28;20224;-93
2023/03/28 08:16:38;;;;;;;17.53;12.20;;;3.60;84.90;;;;;;4993932;28;20641;-93
2023/03/28 08:19:04;;;;;;;14.17;11.93;;;3.70;85.40;;;;;;4994364;28;20195;-93
2023/03/28 08:21:34;;;;;;;13.53;11.17;;;3.80;85.70;;;;;;4993720;28;20184;-93
2023/03/28 08:24:01;;;;;;;14.57;11.57;;;3.90;85.30;;;;;;4994579;28;20179;-92
2023/03/28 08:26:27;;;;;;;12.47;11.20;;;4.10;85.50;;;;;;4993678;28;20182;-92
2023/03/28 08:28:53;;;;;;;13.83;12.37;;;4.30;85.40;;;;;;4994026;28;20208;-91
2023/03/28 08:31:22;;;;;;;14.87;11.87;;;4.30;85.30;;;;;;4994376;28;20172;-92
2023/03/28 08:33:51;;;;;;;17.07;12.23;;;4.30;84.90;;;;;;4995749;28;20650;-92
2023/03/28 08:36:17;;;;;;;15.33;12.73;;;4.40;85.00;;;;;;4994155;28;20610;-93
2023/03/28 08:38:45;;;;;;;13.20;11.93;;;4.40;85.00;;;;;;4993458;28;20211;-92
2023/03/28 08:41:39;;;;;;;12.70;11.57;;;4.60;85.40;;;;;;4993427;28;20212;-93
2023/03/28 08:44:20;;;;;;;15.87;14.53;;;4.70;85.40;;;;;;4993733;28;20172;-93
2023/03/28 08:46:53;;;;;;;13.97;12.87;;;4.30;84.70;;;;;;4994670;28;20207;-93
2023/03/28 08:49:19;;;;;;;15.00;13.80;;;4.20;84.70;;;;;;4993742;28;20202;-93
2023/03/28 08:51:56;;;;;;;15.27;14.07;;;3.70;84.30;;;;;;4996314;28;20182;-93
2023/03/28 08:55:01;;;;;;;18.37;14.50;;;3.70;85.50;;;;;;4994433;28;20174;-92
2023/03/28 08:57:31;;;;;;;15.50;14.07;;;3.80;86.40;;;;;;4945018;28;20192;-93
2023/03/28 09:00:13;;;;;;;19.90;13.27;;;3.90;87.00;;;;;;4996436;28;20187;-93
2023/03/28 09:02:40;;;;;;;13.30;11.90;;;3.80;86.80;;;;;;4997630;28;20170;-92
2023/03/28 09:05:12;;;;;;;13.13;11.93;;;4.00;86.90;;;;;;4993401;28;20274;-90
2023/03/28 09:07:59;;;;;;;14.37;11.90;;;4.50;87.00;;;;;;4992742;28;20241;-90
2023/03/28 09:10:32;;;;;;;15.67;12.20;;;5.00;87.10;;;;;;4992942;28;20323;-90
2023/03/28 09:13:29;;;;;;;16.70;13.50;;;5.30;86.40;;;;;;4994069;28;20166;-90
2023/03/28 09:16:54;;;;;;;14.43;13.20;;;5.10;83.90;;;;;;4994432;28;20172;-92
2023/03/28 09:20:12;;;;;;;17.90;11.97;;;5.30;84.70;;;;;;4890237;29;20207;-91
2023/03/28 09:22:54;;;;;;;16.13;13.23;;;5.50;84.50;;;;;;4861752;29;20193;-92
2023/03/28 09:25:31;;;;;;;20.50;13.60;;;5.40;83.40;;;;;;4901416;29;20175;-91
2023/03/28 09:28:18;;;;;;;14.03;12.83;;;5.30;84.50;;;;;;4963230;28;20218;-92
2023/03/28 09:30:47;;;;;;;14.17;12.80;;;5.00;82.90;;;;;;4993790;28;20184;-93
2023/03/28 09:33:22;;;;;;;13.87;12.60;;;4.90;83.70;;;;;;4998316;28;20205;-92
2023/03/28 09:35:50;;;;;;;14.40;13.07;;;4.80;83.50;;;;;;4993601;28;20180;-91
2023/03/28 09:38:20;;;;;;;14.37;13.07;;;4.60;83.90;;;;;;4992688;28;20205;-92
2023/03/28 09:40:48;;;;;;;14.10;12.67;;;4.70;84.00;;;;;;4992828;28;20177;-91
2023/03/28 09:43:40;;;;;;;13.60;12.70;;;4.80;83.90;;;;;;4993172;28;20188;-92
2023/03/28 09:46:09;;;;;;;11.47;10.27;;;4.60;84.00;;;;;;4992721;28;20276;-92
2023/03/28 09:48:36;;;;;;;15.53;11.20;;;4.60;84.40;;;;;;4992958;28;20241;-91
2023/03/28 09:51:04;;;;;;;13.10;12.03;;;4.70;84.20;;;;;;5000976;28;20172;-94
2023/03/28 09:53:32;;;;;;;14.27;12.30;;;4.80;83.90;;;;;;5007873;28;20202;-94
2023/03/28 09:56:07;;;;;;;13.50;12.23;;;5.00;83.60;;;;;;4992526;28;20191;-91
2023/03/28 09:58:51;;;;;;;15.37;14.03;;;5.10;83.10;;;;;;4993822;28;20262;-92
2023/03/28 10:01:35;;;;;;;14.57;13.40;;;5.30;82.50;;;;;;4997374;28;20185;-92
2023/03/28 10:04:07;;;;;;;14.60;13.40;;;5.40;82.30;;;;;;4992449;28;20209;-92
2023/03/28 10:06:39;;;;;;;15.70;14.30;;;5.50;80.90;;;;;;4992482;28;20173;-92
2023/03/28 10:09:18;;;;;;;15.50;14.10;;;5.60;81.60;;;;;;4998522;28;20205;-92
2023/03/28 10:12:07;;;;;;;14.87;13.43;;;5.60;81.20;;;;;;4996258;28;20227;-94
2023/03/28 10:14:35;;;;;;;15.63;13.10;;;6.00;82.40;;;;;;5000061;28;20183;-93
2023/03/28 10:17:04;;;;;;;14.33;13.13;;;5.90;82.10;;;;;;4993821;28;20287;-92
2023/03/28 10:19:33;;;;;;;15.50;13.87;;;6.20;82.60;;;;;;4996013;28;20194;-91
2023/03/28 10:22:06;;;;;;;15.13;13.67;;;6.40;81.90;;;;;;4995852;28;20197;-90
2023/03/28 10:24:32;;;;;;;14.33;13.00;;;6.50;81.90;;;;;;4996207;28;20518;-91
2023/03/28 10:27:06;;;;;;;14.40;13.00;;;6.90;81.50;;;;;;4996735;28;20185;-90
2023/03/28 10:29:32;;;;;;;14.77;12.37;;;7.20;81.00;;;;;;4997047;28;20730;-89
2023/03/28 10:31:58;;;;;;;18.07;13.63;;;7.20;79.40;;;;;;4996907;28;20170;-89
2023/03/28 10:34:26;;;;;;;14.90;13.57;;;7.10;78.20;;;;;;4995699;28;20197;-89
2023/03/28 10:36:52;;;;;;;17.37;15.57;;;7.40;78.20;;;;;;4996467;28;20202;-89
2023/03/28 10:39:32;;;;;;;14.90;13.33;;;7.20;75.80;;;;;;4996758;28;20254;-89
2023/03/28 10:41:59;;;;;;;14.17;11.17;;;7.30;74.50;;;;;;4995470;28;20181;-89
2023/03/28 10:44:30;;;;;;;18.30;11.93;;;7.60;75.30;;;;;;4995537;28;20214;-89
2023/03/28 10:47:03;;;;;;;15.80;13.90;;;7.80;75.60;;;;;;4996614;28;20177;-90
2023/03/28 10:49:42;;;;;;;15.70;14.07;;;7.80;74.20;;;;;;4996593;28;20668;-89
2023/03/28 10:52:35;;;;;;;14.13;12.40;;;8.20;73.90;;;;;;4996066;28;20572;-89
2023/03/28 10:55:10;;;;;;;15.13;11.67;;;8.30;74.10;;;;;;4995238;28;20202;-89
2023/03/28 10:57:55;;;;;;;19.10;12.80;;;8.60;72.50;;;;;;4995277;28;20201;-89
2023/03/28 11:00:39;;;;;;;18.15;12.50;;;8.80;72.70;;;;;;4995937;28;20922;-90
2023/03/28 11:03:17;;;;;;;16.00;12.43;;;9.00;72.20;;;;;;4995774;28;20169;-89
2023/03/28 11:06:24;;;;;;;20.13;14.50;;;8.60;69.90;;;;;;4996255;28;20320;-89
2023/03/28 11:09:14;;;;;;;16.03;13.73;;;8.40;70.80;;;;;;4901314;29;20299;-89
2023/03/28 11:12:04;;;;;;;15.07;13.63;;;8.60;72.00;;;;;;4901610;29;20188;-89
2023/03/28 11:14:45;;;;;;;14.60;13.10;;;8.50;71.40;;;;;;4978504;28;20182;-89
2023/03/28 11:17:20;;;;;;;21.47;14.80;;;8.30;71.60;;;;;;4995195;28;20237;-89
2023/03/28 11:20:06;;;;;;;15.20;13.70;;;8.20;70.80;;;;;;4995312;28;20165;-89
2023/03/28 11:22:54;;;;;;;18.93;13.97;;;8.10;70.30;;;;;;4995920;28;20663;-89
2023/03/28 11:25:44;;;;;;;17.60;13.77;;;7.80;71.90;;;;;;4996576;28;20157;-89
2023/03/28 11:28:36;;;;;;;17.63;14.43;;;7.90;72.00;;;;;;4994312;28;20206;-89
2023/03/28 11:31:02;;;;;;;15.60;13.90;;;7.70;73.20;;;;;;4995536;28;20663;-88
2023/03/28 11:33:45;;;;;;;15.40;12.53;;;7.60;73.80;;;;;;4994976;28;20208;-90
2023/03/28 11:36:18;;;;;;;18.40;12.40;;;7.10;75.40;;;;;;4995820;28;20237;-89
2023/03/28 11:38:49;;;;;;;15.00;13.60;;;6.50;78.10;;;;;;4994804;28;20588;-90
2023/03/28 11:41:18;;;;;;;11.37;10.00;;;6.30;80.00;;;;;;4994437;28;20185;-90
2023/03/28 11:44:12;;;;;;;12.90;10.03;;;6.10;80.80;;;;;;4994926;28;20228;-89
2023/03/28 11:47:01;;;;;;;12.37;9.57;;;5.90;82.00;;;;;;4994215;28;20174;-89
2023/03/28 11:49:53;;;;;;;11.43;10.13;;;5.70;83.90;;;;;;4994150;28;20206;-89
2023/03/28 11:52:38;;;;;;;9.20;8.27;;;5.40;84.60;;;;;;4994219;28;20301;-89
2023/03/28 11:55:21;;;;;;;12.60;9.20;;;5.60;85.10;;;;;;4994236;28;20180;-90
2023/03/28 11:57:51;;;;;;;14.00;9.20;;;5.60;85.20;;;;;;4994086;28;20190;-89
2023/03/28 12:00:30;;;;;;;12.73;8.43;;;5.80;85.20;;;;;;4995531;28;20158;-90
2023/03/28 12:03:24;;;;;;;16.37;9.70;;;6.20;85.10;;;;;;4994133;28;20228;-89
2023/03/28 12:05:53;;;;;;;19.73;9.83;;;6.10;83.70;;;;;;4993955;28;20687;-89
2023/03/28 12:08:50;;;;;;;14.10;8.70;;;6.20;83.10;;;;;;4993769;28;20286;-89
2023/03/28 12:11:32;;;;;;;15.60;10.00;;;6.30;82.40;;;;;;4993859;28;20200;-89
2023/03/28 12:14:08;;;;;;;12.67;10.03;;;6.40;82.20;;;;;;4995051;28;20629;-89
2023/03/28 12:16:37;;;;;;;12.73;9.90;;;6.40;80.40;;;;;;4994271;28;20220;-89
2023/03/28 12:19:09;;;;;;;15.97;9.03;;;6.50;81.30;;;;;;4993966;28;20206;-89
2023/03/28 12:21:46;;;;;;;13.33;9.83;;;7.10;81.80;;;;;;4993701;28;20181;-89
2023/03/28 12:24:32;;;;;;;15.73;8.30;;;7.10;80.80;;;;;;4995182;28;20166;-89
2023/03/28 12:27:06;;;;;;;20.03;10.87;;;7.10;80.60;;;;;;4993670;28;20175;-89
2023/03/28 12:29:34;;;;;;;15.53;9.27;;;7.00;80.00;;;;;;4994271;28;20352;-89
2023/03/28 12:32:21;;;;;;;16.33;9.23;;;6.70;80.60;;;;;;4994742;28;20221;-89
2023/03/28 12:34:58;;;;;;;13.77;8.60;;;6.50;80.80;;;;;;4994787;28;20198;-89
2023/03/28 12:37:31;;;;;;;16.10;10.03;;;6.40;81.50;;;;;;4993329;28;20647;-89
2023/03/28 12:40:18;;;;;;;17.97;10.03;;;6.20;80.50;;;;;;4992893;28;20178;-89
2023/03/28 12:42:46;;;;;;;15.80;10.40;;;6.30;81.60;;;;;;4994921;28;20159;-89
2023/03/28 12:45:22;;;;;;;15.00;9.40;;;5.90;79.90;;;;;;4993580;28;20189;-90
2023/03/28 12:47:54;;;;;;;15.50;9.90;;;5.50;80.30;;;;;;4993188;28;20300;-89
2023/03/28 12:50:29;;;;;;;12.47;9.87;;;5.00;81.50;;;;;;4994737;28;20164;-89
2023/03/28 12:52:56;;;;;;;16.07;9.50;;;4.90;81.40;;;;;;4993167;28;20555;-89
2023/03/28 12:55:25;;;;;;;11.87;9.87;;;5.20;81.10;;;;;;4994399;28;20252;-89
2023/03/28 12:57:53;;;;;;;14.07;11.40;;;5.50;80.40;;;;;;4993169;28;20755;-89
2023/03/28 13:00:41;;;;;;;14.93;11.77;;;5.80;80.30;;;;;;4993098;28;20658;-89
2023/03/28 13:03:50;;;;;;;13.53;11.10;;;6.00;79.80;;;;;;4994497;28;20162;-89
2023/03/28 13:06:39;;;;;;;16.73;11.67;;;6.20;79.90;;;;;;4994464;28;20165;-89
2023/03/28 13:09:33;;;;;;;15.30;11.10;;;6.30;78.40;;;;;;4992744;28;20217;-89
2023/03/28 13:12:37;;;;;;;15.00;11.40;;;6.40;78.30;;;;;;4992822;28;20274;-89